KCPS/CPS METAR and TAF weather

Enter ICAO airport designator
Station Type Date Time Source
KCPS METAR 2022/01/29 00:53 UTC NOAA

KCPS 290053Z 33011KT 10SM CLR M07/M16 A3042 RMK AO2 SLP305 T10671156


Station Type Date Time Source
KCPS Decoded METAR 2022/01/29 00:53 UTC NOAA

ST LOUIS DOWNTOWN AIRPORT, IL, United States (KCPS) 38-34N 090-09W 126M
Jan 28, 2022 - 07:53 PM EST / 2022.01.29 0053 UTC
Wind: from the NNW (330 degrees) at 13 MPH (11 KT):0
Visibility: 10 mile(s):0
Sky conditions: clear
Temperature: 19.9 F (-6.7 C)
Windchill: 6 F (-14 C):1
Dew Point: 3.9 F (-15.6 C)
Relative Humidity: 49%
Pressure (altimeter): 30.42 in. Hg (1030 hPa)
ob: KCPS 290053Z 33011KT 10SM CLR M07/M16 A3042 RMK AO2 SLP305 T10671156
cycle: 1

Station Type Date Time Source
KCPS TAF 2022/01/28 18:22 UTC NOAA

TAF KCPS 281720Z 2818/2918 32014G20KT P6SM BKN045
FM282000 33014G21KT P6SM SCT250
FM290000 VRB03KT P6SM SCT250

Example: see airport list